臺北終端管制區 - 桃園北區雷達席

METAR RCTP 021830Z 07005KT 9999 FEW012 12/09 Q1022 NOSIG RMK A3019=

站台狀態:Offline
最後更新:2021-12-03 02:30:01